Hillsville, VA

3:11 AM EDT on September 27, 2016 (GMT -0400)
Twin County | | Change Station

Elev 2690 ft 36.77 °N, 80.82 °W | Updated 16 minutes ago

Light Rain
Light Rain
63 °F
Feels Like 63 °F
N
5
Wind Variable Wind from South

Today
High -- | Low -- °F
--% Chance of Precip.
Yesterday
High -- | Low -- °F
Precip. -- in
Pressure 30.06 in
Visibility 5.0 miles
Clouds Scattered Clouds 400 ft
Overcast 1100 ft
Dew Point 63 °F
Humidity 100%
Rainfall 0.10 in
Snow Depth Not available.
7:15 AM 7:11 PM
Waning Crescent, 13% visible
METAR KHLX 270655Z AUTO 19004KT 5SM -RA SCT004 OVC011 17/17 A3006 RMK AO2 P0006 T01720172
Pressure 30.06 in
Visibility 5.0 miles
Clouds Scattered Clouds 400 ft
Overcast 1100 ft
Dew Point 63 °F
Humidity 100%
Rainfall 0.10 in
Snow Depth Not available.
7:15 AM 7:11 PM
Waning Crescent, 13% visible
METAR KHLX 270655Z AUTO 19004KT 5SM -RA SCT004 OVC011 17/17 A3006 RMK AO2 P0006 T01720172

10-Day Weather Forecast

Almanac

Astronomy

Sep. 27, 2016 Rise Set
Actual Time
Civil Twilight
Nautical Twilight
Astronomical Twilight
Moon
Length of Visible Light
Length of Day
Tomorrow will be .
, % of the Moon is Illuminated

Today's Extremes

State Highs State Lows

Community

WunderPhotos

Upload Photos

1,942,040 photos uploaded!

WunderBlog® & News

Nearby

Air Quality

  Air Quality AQ Index Pollutant
Not available.

Snow Depth

Station Depth Elevation

Earthquake Activity

City Distance Mag. Time & Date
Minimum magnitude displayed is 2.5.

Coastal Water Temperatures

Place Temperature

Stations

Nearby Weather Stations

Station Location Temp. Windchill Dew Point Humidity Wind Precip. Elev Updated Type
                   

Watches & Warnings

There are currently no watches in effect.